sensor_id;sensor_type;location;lat;lon;timestamp;temperature;humidity
50969;DHT22;36982;51.474;7.228;2023-06-04T00:01:02;13.00;99.90
50969;DHT22;36982;51.474;7.228;2023-06-04T00:03:28;12.90;99.90
50969;DHT22;36982;51.474;7.228;2023-06-04T00:05:54;13.00;99.90
50969;DHT22;36982;51.474;7.228;2023-06-04T00:08:19;13.10;99.90
50969;DHT22;36982;51.474;7.228;2023-06-04T00:10:45;13.20;99.90
50969;DHT22;36982;51.474;7.228;2023-06-04T00:13:10;13.10;99.90
50969;DHT22;36982;51.474;7.228;2023-06-04T00:15:36;13.00;99.90
50969;DHT22;36982;51.474;7.228;2023-06-04T00:18:02;13.00;99.90
50969;DHT22;36982;51.474;7.228;2023-06-04T00:20:27;13.00;99.90
50969;DHT22;36982;51.474;7.228;2023-06-04T00:22:53;13.00;99.90
50969;DHT22;36982;51.474;7.228;2023-06-04T00:25:18;13.00;99.90
50969;DHT22;36982;51.474;7.228;2023-06-04T00:27:44;13.00;99.90
50969;DHT22;36982;51.474;7.228;2023-06-04T00:30:10;12.90;99.90
50969;DHT22;36982;51.474;7.228;2023-06-04T00:32:36;12.90;99.90
50969;DHT22;36982;51.474;7.228;2023-06-04T00:35:02;13.00;99.90
50969;DHT22;36982;51.474;7.228;2023-06-04T00:37:28;12.90;99.90
50969;DHT22;36982;51.474;7.228;2023-06-04T00:39:54;12.80;99.90
50969;DHT22;36982;51.474;7.228;2023-06-04T00:42:20;12.80;99.90
50969;DHT22;36982;51.474;7.228;2023-06-04T00:44:45;12.80;99.90
50969;DHT22;36982;51.474;7.228;2023-06-04T00:47:13;12.90;99.90
50969;DHT22;36982;51.474;7.228;2023-06-04T00:49:40;13.00;99.90
50969;DHT22;36982;51.474;7.228;2023-06-04T00:52:10;12.90;99.90
50969;DHT22;36982;51.474;7.228;2023-06-04T00:54:36;12.80;99.90
50969;DHT22;36982;51.474;7.228;2023-06-04T00:57:04;12.50;99.90
50969;DHT22;36982;51.474;7.228;2023-06-04T00:59:31;12.60;99.90
50969;DHT22;36982;51.474;7.228;2023-06-04T01:02:06;12.60;99.90
50969;DHT22;36982;51.474;7.228;2023-06-04T01:04:33;12.60;99.90
50969;DHT22;36982;51.474;7.228;2023-06-04T01:07:02;12.50;99.90
50969;DHT22;36982;51.474;7.228;2023-06-04T01:09:29;12.50;99.90
50969;DHT22;36982;51.474;7.228;2023-06-04T01:11:56;12.50;99.90
50969;DHT22;36982;51.474;7.228;2023-06-04T01:14:24;12.60;99.90
50969;DHT22;36982;51.474;7.228;2023-06-04T01:16:56;12.50;99.90
50969;DHT22;36982;51.474;7.228;2023-06-04T01:25:15;12.40;99.90
50969;DHT22;36982;51.474;7.228;2023-06-04T01:27:48;12.30;1.00
50969;DHT22;36982;51.474;7.228;2023-06-04T01:30:15;12.30;1.00
50969;DHT22;36982;51.474;7.228;2023-06-04T01:32:41;12.30;1.00
50969;DHT22;36982;51.474;7.228;2023-06-04T01:35:08;12.10;1.00
50969;DHT22;36982;51.474;7.228;2023-06-04T01:37:36;12.20;1.00
50969;DHT22;36982;51.474;7.228;2023-06-04T01:40:02;12.10;1.00
50969;DHT22;36982;51.474;7.228;2023-06-04T01:42:27;12.00;25.60
50969;DHT22;36982;51.474;7.228;2023-06-04T01:44:53;12.00;95.70
50969;DHT22;36982;51.474;7.228;2023-06-04T01:47:18;12.00;99.90
50969;DHT22;36982;51.474;7.228;2023-06-04T01:49:44;11.90;99.90
50969;DHT22;36982;51.474;7.228;2023-06-04T01:52:09;11.90;99.90
50969;DHT22;36982;51.474;7.228;2023-06-04T01:54:36;11.90;99.90
50969;DHT22;36982;51.474;7.228;2023-06-04T01:57:03;11.90;99.90
50969;DHT22;36982;51.474;7.228;2023-06-04T01:59:29;11.80;99.90
50969;DHT22;36982;51.474;7.228;2023-06-04T02:01:57;11.80;99.90
50969;DHT22;36982;51.474;7.228;2023-06-04T02:04:22;11.70;1.00
50969;DHT22;36982;51.474;7.228;2023-06-04T02:06:50;11.80;8.30
50969;DHT22;36982;51.474;7.228;2023-06-04T02:09:15;11.50;99.90
50969;DHT22;36982;51.474;7.228;2023-06-04T02:11:41;11.40;99.90
50969;DHT22;36982;51.474;7.228;2023-06-04T02:14:06;11.40;1.00
50969;DHT22;36982;51.474;7.228;2023-06-04T02:16:32;11.40;1.00
50969;DHT22;36982;51.474;7.228;2023-06-04T02:18:58;11.50;1.00
50969;DHT22;36982;51.474;7.228;2023-06-04T02:21:24;11.40;1.00
50969;DHT22;36982;51.474;7.228;2023-06-04T02:23:50;11.30;92.10
50969;DHT22;36982;51.474;7.228;2023-06-04T02:26:15;11.30;99.90
50969;DHT22;36982;51.474;7.228;2023-06-04T02:28:41;11.10;42.00
50969;DHT22;36982;51.474;7.228;2023-06-04T02:31:07;11.10;99.90
50969;DHT22;36982;51.474;7.228;2023-06-04T02:33:32;11.10;99.90
50969;DHT22;36982;51.474;7.228;2023-06-04T02:35:58;11.10;99.90
50969;DHT22;36982;51.474;7.228;2023-06-04T02:38:23;11.20;99.90
50969;DHT22;36982;51.474;7.228;2023-06-04T02:40:49;11.20;99.90
50969;DHT22;36982;51.474;7.228;2023-06-04T02:43:14;11.10;99.90
50969;DHT22;36982;51.474;7.228;2023-06-04T02:45:40;11.30;99.90
50969;DHT22;36982;51.474;7.228;2023-06-04T02:48:06;11.20;99.90
50969;DHT22;36982;51.474;7.228;2023-06-04T02:50:32;11.30;99.90
50969;DHT22;36982;51.474;7.228;2023-06-04T02:52:57;11.40;99.90
50969;DHT22;36982;51.474;7.228;2023-06-04T02:55:23;11.20;99.90
50969;DHT22;36982;51.474;7.228;2023-06-04T02:57:49;11.10;1.00
50969;DHT22;36982;51.474;7.228;2023-06-04T03:00:15;11.10;1.00
50969;DHT22;36982;51.474;7.228;2023-06-04T03:02:46;11.10;1.00
50969;DHT22;36982;51.474;7.228;2023-06-04T03:05:13;11.00;99.90
50969;DHT22;36982;51.474;7.228;2023-06-04T03:07:41;10.90;1.00
50969;DHT22;36982;51.474;7.228;2023-06-04T03:10:09;10.80;99.90
50969;DHT22;36982;51.474;7.228;2023-06-04T03:12:35;10.90;99.90
50969;DHT22;36982;51.474;7.228;2023-06-04T03:15:01;11.00;99.90
50969;DHT22;36982;51.474;7.228;2023-06-04T03:17:26;11.00;99.90
50969;DHT22;36982;51.474;7.228;2023-06-04T03:19:52;11.00;1.00
50969;DHT22;36982;51.474;7.228;2023-06-04T03:22:18;10.90;1.00
50969;DHT22;36982;51.474;7.228;2023-06-04T03:24:43;10.90;86.70
50969;DHT22;36982;51.474;7.228;2023-06-04T03:27:10;10.80;99.90
50969;DHT22;36982;51.474;7.228;2023-06-04T03:29:36;10.70;99.90
50969;DHT22;36982;51.474;7.228;2023-06-04T03:32:02;10.70;99.90
50969;DHT22;36982;51.474;7.228;2023-06-04T03:34:29;10.60;99.90
50969;DHT22;36982;51.474;7.228;2023-06-04T03:36:58;10.70;99.90
50969;DHT22;36982;51.474;7.228;2023-06-04T03:39:23;10.80;99.90
50969;DHT22;36982;51.474;7.228;2023-06-04T03:41:49;10.80;99.90
50969;DHT22;36982;51.474;7.228;2023-06-04T03:44:16;10.80;99.90
50969;DHT22;36982;51.474;7.228;2023-06-04T03:46:43;10.70;45.70
50969;DHT22;36982;51.474;7.228;2023-06-04T03:49:10;10.80;99.90
50969;DHT22;36982;51.474;7.228;2023-06-04T03:51:37;10.70;1.00
50969;DHT22;36982;51.474;7.228;2023-06-04T03:54:03;10.70;1.00
50969;DHT22;36982;51.474;7.228;2023-06-04T03:56:29;10.60;99.90
50969;DHT22;36982;51.474;7.228;2023-06-04T03:58:55;10.90;99.90
50969;DHT22;36982;51.474;7.228;2023-06-04T04:01:20;10.80;99.90
50969;DHT22;36982;51.474;7.228;2023-06-04T04:03:46;10.90;1.00
50969;DHT22;36982;51.474;7.228;2023-06-04T04:06:15;10.90;76.80
50969;DHT22;36982;51.474;7.228;2023-06-04T04:08:41;11.00;1.00
50969;DHT22;36982;51.474;7.228;2023-06-04T04:11:14;10.90;99.90
50969;DHT22;36982;51.474;7.228;2023-06-04T04:13:40;10.90;1.00
50969;DHT22;36982;51.474;7.228;2023-06-04T04:16:06;10.90;1.00
50969;DHT22;36982;51.474;7.228;2023-06-04T04:18:36;10.90;17.60
50969;DHT22;36982;51.474;7.228;2023-06-04T04:21:02;10.90;99.90
50969;DHT22;36982;51.474;7.228;2023-06-04T04:23:29;10.90;1.00
50969;DHT22;36982;51.474;7.228;2023-06-04T04:25:55;10.90;1.00
50969;DHT22;36982;51.474;7.228;2023-06-04T04:28:27;11.10;1.00
50969;DHT22;36982;51.474;7.228;2023-06-04T04:30:54;11.20;99.90
50969;DHT22;36982;51.474;7.228;2023-06-04T04:33:20;11.20;99.90
50969;DHT22;36982;51.474;7.228;2023-06-04T04:35:45;11.20;1.00
50969;DHT22;36982;51.474;7.228;2023-06-04T04:38:11;11.20;99.90
50969;DHT22;36982;51.474;7.228;2023-06-04T04:40:37;11.20;1.00
50969;DHT22;36982;51.474;7.228;2023-06-04T04:43:02;11.30;13.80
50969;DHT22;36982;51.474;7.228;2023-06-04T04:45:29;11.20;1.00
50969;DHT22;36982;51.474;7.228;2023-06-04T04:47:54;11.30;99.30
50969;DHT22;36982;51.474;7.228;2023-06-04T04:50:20;11.40;99.90
50969;DHT22;36982;51.474;7.228;2023-06-04T04:52:45;11.40;99.90
50969;DHT22;36982;51.474;7.228;2023-06-04T04:55:11;11.50;99.90
50969;DHT22;36982;51.474;7.228;2023-06-04T04:57:38;11.50;99.90
50969;DHT22;36982;51.474;7.228;2023-06-04T05:00:05;11.50;99.90
50969;DHT22;36982;51.474;7.228;2023-06-04T05:02:32;11.80;1.00
50969;DHT22;36982;51.474;7.228;2023-06-04T05:04:58;11.90;99.90
50969;DHT22;36982;51.474;7.228;2023-06-04T05:07:24;12.10;99.90
50969;DHT22;36982;51.474;7.228;2023-06-04T05:09:50;12.50;99.90
50969;DHT22;36982;51.474;7.228;2023-06-04T05:12:15;12.50;96.10
50969;DHT22;36982;51.474;7.228;2023-06-04T05:14:41;13.00;45.20
50969;DHT22;36982;51.474;7.228;2023-06-04T05:17:07;13.90;1.00
50969;DHT22;36982;51.474;7.228;2023-06-04T05:19:36;15.00;1.00
50969;DHT22;36982;51.474;7.228;2023-06-04T05:22:02;15.90;22.00
50969;DHT22;36982;51.474;7.228;2023-06-04T05:24:28;16.40;99.90
50969;DHT22;36982;51.474;7.228;2023-06-04T05:26:55;17.10;99.90
50969;DHT22;36982;51.474;7.228;2023-06-04T05:29:22;17.80;32.80
50969;DHT22;36982;51.474;7.228;2023-06-04T05:31:47;18.50;1.00
50969;DHT22;36982;51.474;7.228;2023-06-04T05:34:13;19.00;99.90
50969;DHT22;36982;51.474;7.228;2023-06-04T05:36:42;19.70;99.90
50969;DHT22;36982;51.474;7.228;2023-06-04T05:39:07;20.10;99.90
50969;DHT22;36982;51.474;7.228;2023-06-04T05:41:35;20.30;99.90
50969;DHT22;36982;51.474;7.228;2023-06-04T05:44:01;20.70;99.90
50969;DHT22;36982;51.474;7.228;2023-06-04T05:46:27;21.30;99.90
50969;DHT22;36982;51.474;7.228;2023-06-04T05:48:53;21.40;57.50
50969;DHT22;36982;51.474;7.228;2023-06-04T05:51:19;20.80;24.60
50969;DHT22;36982;51.474;7.228;2023-06-04T05:53:46;21.10;1.00
50969;DHT22;36982;51.474;7.228;2023-06-04T05:56:11;21.20;1.40
50969;DHT22;36982;51.474;7.228;2023-06-04T05:58:55;21.20;1.00
50969;DHT22;36982;51.474;7.228;2023-06-04T06:01:21;21.50;1.00
50969;DHT22;36982;51.474;7.228;2023-06-04T06:03:47;21.30;1.00
50969;DHT22;36982;51.474;7.228;2023-06-04T06:06:12;20.90;1.00
50969;DHT22;36982;51.474;7.228;2023-06-04T06:08:38;21.00;1.00
50969;DHT22;36982;51.474;7.228;2023-06-04T06:11:04;21.00;1.00
50969;DHT22;36982;51.474;7.228;2023-06-04T06:13:30;20.60;1.00
50969;DHT22;36982;51.474;7.228;2023-06-04T06:15:56;20.50;1.00
50969;DHT22;36982;51.474;7.228;2023-06-04T06:18:22;20.60;1.00
50969;DHT22;36982;51.474;7.228;2023-06-04T06:20:48;20.80;1.00
50969;DHT22;36982;51.474;7.228;2023-06-04T06:23:13;20.80;1.00
50969;DHT22;36982;51.474;7.228;2023-06-04T06:25:39;20.50;1.00
50969;DHT22;36982;51.474;7.228;2023-06-04T06:28:11;20.70;1.00
50969;DHT22;36982;51.474;7.228;2023-06-04T06:30:37;20.60;1.00
50969;DHT22;36982;51.474;7.228;2023-06-04T06:33:02;20.80;1.00
50969;DHT22;36982;51.474;7.228;2023-06-04T06:35:28;21.10;99.90
50969;DHT22;36982;51.474;7.228;2023-06-04T06:37:53;20.70;99.90
50969;DHT22;36982;51.474;7.228;2023-06-04T06:40:19;20.10;99.90
50969;DHT22;36982;51.474;7.228;2023-06-04T06:42:51;19.90;99.90
50969;DHT22;36982;51.474;7.228;2023-06-04T06:45:17;20.20;99.90
50969;DHT22;36982;51.474;7.228;2023-06-04T06:47:44;20.50;99.90
50969;DHT22;36982;51.474;7.228;2023-06-04T06:50:10;20.70;99.90
50969;DHT22;36982;51.474;7.228;2023-06-04T06:52:36;21.20;99.90
50969;DHT22;36982;51.474;7.228;2023-06-04T06:55:03;21.50;99.90
50969;DHT22;36982;51.474;7.228;2023-06-04T06:57:29;21.40;99.90
50969;DHT22;36982;51.474;7.228;2023-06-04T06:59:55;20.90;99.90
50969;DHT22;36982;51.474;7.228;2023-06-04T07:02:21;19.90;99.90
50969;DHT22;36982;51.474;7.228;2023-06-04T07:04:47;19.10;99.90
50969;DHT22;36982;51.474;7.228;2023-06-04T07:07:12;18.60;99.90
50969;DHT22;36982;51.474;7.228;2023-06-04T07:09:38;18.20;99.90
50969;DHT22;36982;51.474;7.228;2023-06-04T07:12:04;17.80;99.90
50969;DHT22;36982;51.474;7.228;2023-06-04T07:14:29;17.50;99.90
50969;DHT22;36982;51.474;7.228;2023-06-04T07:16:55;17.20;99.90
50969;DHT22;36982;51.474;7.228;2023-06-04T07:19:21;17.00;99.90
50969;DHT22;36982;51.474;7.228;2023-06-04T07:21:54;17.00;99.90
50969;DHT22;36982;51.474;7.228;2023-06-04T07:24:21;17.00;99.90
50969;DHT22;36982;51.474;7.228;2023-06-04T07:26:47;16.90;99.90
50969;DHT22;36982;51.474;7.228;2023-06-04T07:29:13;16.90;99.90
50969;DHT22;36982;51.474;7.228;2023-06-04T07:31:38;16.90;99.90
50969;DHT22;36982;51.474;7.228;2023-06-04T07:34:04;16.80;99.90
50969;DHT22;36982;51.474;7.228;2023-06-04T07:36:29;16.80;99.90
50969;DHT22;36982;51.474;7.228;2023-06-04T07:38:56;16.80;99.90
50969;DHT22;36982;51.474;7.228;2023-06-04T07:41:22;16.80;99.90
50969;DHT22;36982;51.474;7.228;2023-06-04T07:43:47;16.80;1.00
50969;DHT22;36982;51.474;7.228;2023-06-04T07:46:13;16.80;1.00
50969;DHT22;36982;51.474;7.228;2023-06-04T07:48:39;17.00;1.00
50969;DHT22;36982;51.474;7.228;2023-06-04T07:51:04;17.10;1.00
50969;DHT22;36982;51.474;7.228;2023-06-04T07:53:30;17.20;1.00
50969;DHT22;36982;51.474;7.228;2023-06-04T07:55:57;17.10;99.90
50969;DHT22;36982;51.474;7.228;2023-06-04T07:58:22;17.00;99.90
50969;DHT22;36982;51.474;7.228;2023-06-04T08:00:48;17.00;99.90
50969;DHT22;36982;51.474;7.228;2023-06-04T08:03:14;17.10;99.90
50969;DHT22;36982;51.474;7.228;2023-06-04T08:05:43;17.20;99.90
50969;DHT22;36982;51.474;7.228;2023-06-04T08:08:09;17.20;99.90
50969;DHT22;36982;51.474;7.228;2023-06-04T08:10:34;17.30;99.90
50969;DHT22;36982;51.474;7.228;2023-06-04T08:13:00;17.20;99.90
50969;DHT22;36982;51.474;7.228;2023-06-04T08:15:26;17.30;99.90
50969;DHT22;36982;51.474;7.228;2023-06-04T08:17:51;17.30;99.90
50969;DHT22;36982;51.474;7.228;2023-06-04T08:20:17;17.40;99.90
50969;DHT22;36982;51.474;7.228;2023-06-04T08:22:42;17.40;99.90
50969;DHT22;36982;51.474;7.228;2023-06-04T08:25:08;17.50;99.90
50969;DHT22;36982;51.474;7.228;2023-06-04T08:27:34;17.60;99.90
50969;DHT22;36982;51.474;7.228;2023-06-04T08:30:00;17.70;99.90
50969;DHT22;36982;51.474;7.228;2023-06-04T08:32:27;17.80;1.00
50969;DHT22;36982;51.474;7.228;2023-06-04T08:34:53;18.00;1.00
50969;DHT22;36982;51.474;7.228;2023-06-04T08:37:18;18.00;1.00
50969;DHT22;36982;51.474;7.228;2023-06-04T08:39:44;18.10;1.00
50969;DHT22;36982;51.474;7.228;2023-06-04T08:42:22;18.10;1.00
50969;DHT22;36982;51.474;7.228;2023-06-04T08:44:51;18.20;1.00
50969;DHT22;36982;51.474;7.228;2023-06-04T08:47:19;18.20;1.00
50969;DHT22;36982;51.474;7.228;2023-06-04T08:49:49;18.20;99.90
50969;DHT22;36982;51.474;7.228;2023-06-04T08:52:15;18.30;99.90
50969;DHT22;36982;51.474;7.228;2023-06-04T08:54:41;18.30;99.90
50969;DHT22;36982;51.474;7.228;2023-06-04T08:57:07;18.30;99.90
50969;DHT22;36982;51.474;7.228;2023-06-04T08:59:33;18.40;99.90
50969;DHT22;36982;51.474;7.228;2023-06-04T09:01:59;18.40;99.90
50969;DHT22;36982;51.474;7.228;2023-06-04T09:04:25;18.50;1.00
50969;DHT22;36982;51.474;7.228;2023-06-04T09:06:52;18.60;99.90
50969;DHT22;36982;51.474;7.228;2023-06-04T09:09:19;18.70;99.90
50969;DHT22;36982;51.474;7.228;2023-06-04T09:11:52;18.80;99.90
50969;DHT22;36982;51.474;7.228;2023-06-04T09:14:18;18.80;99.90
50969;DHT22;36982;51.474;7.228;2023-06-04T09:16:53;18.90;99.90
50969;DHT22;36982;51.474;7.228;2023-06-04T09:19:20;18.90;99.90
50969;DHT22;36982;51.474;7.228;2023-06-04T09:21:57;18.90;99.90
50969;DHT22;36982;51.474;7.228;2023-06-04T09:24:24;19.00;99.90
50969;DHT22;36982;51.474;7.228;2023-06-04T09:26:51;19.10;99.90
50969;DHT22;36982;51.474;7.228;2023-06-04T09:29:17;19.10;99.90
50969;DHT22;36982;51.474;7.228;2023-06-04T09:31:47;19.20;99.90
50969;DHT22;36982;51.474;7.228;2023-06-04T09:34:30;19.10;99.90
50969;DHT22;36982;51.474;7.228;2023-06-04T09:36:56;19.20;99.90
50969;DHT22;36982;51.474;7.228;2023-06-04T09:39:22;19.30;99.90
50969;DHT22;36982;51.474;7.228;2023-06-04T09:42:01;19.20;99.90
50969;DHT22;36982;51.474;7.228;2023-06-04T09:44:29;19.20;99.90
50969;DHT22;36982;51.474;7.228;2023-06-04T09:46:58;19.30;99.90
50969;DHT22;36982;51.474;7.228;2023-06-04T09:49:24;19.40;99.90
50969;DHT22;36982;51.474;7.228;2023-06-04T09:51:50;19.50;99.90
50969;DHT22;36982;51.474;7.228;2023-06-04T09:54:16;19.50;99.90
50969;DHT22;36982;51.474;7.228;2023-06-04T09:56:42;19.50;99.90
50969;DHT22;36982;51.474;7.228;2023-06-04T09:59:12;19.50;99.90
50969;DHT22;36982;51.474;7.228;2023-06-04T10:01:39;19.50;99.90
50969;DHT22;36982;51.474;7.228;2023-06-04T10:04:09;19.50;99.90
50969;DHT22;36982;51.474;7.228;2023-06-04T10:06:38;19.50;99.90
50969;DHT22;36982;51.474;7.228;2023-06-04T10:09:06;19.50;99.90
50969;DHT22;36982;51.474;7.228;2023-06-04T10:11:40;19.60;99.90
50969;DHT22;36982;51.474;7.228;2023-06-04T10:14:22;19.60;99.90
50969;DHT22;36982;51.474;7.228;2023-06-04T10:16:51;19.50;99.90
50969;DHT22;36982;51.474;7.228;2023-06-04T10:19:18;19.50;99.90
50969;DHT22;36982;51.474;7.228;2023-06-04T10:34:16;19.70;99.90
50969;DHT22;36982;51.474;7.228;2023-06-04T10:36:44;20.20;99.90
50969;DHT22;36982;51.474;7.228;2023-06-04T10:39:10;20.10;99.90
50969;DHT22;36982;51.474;7.228;2023-06-04T10:41:36;20.10;99.90
50969;DHT22;36982;51.474;7.228;2023-06-04T10:44:02;20.30;99.90
50969;DHT22;36982;51.474;7.228;2023-06-04T10:46:38;20.40;99.90
50969;DHT22;36982;51.474;7.228;2023-06-04T10:49:05;20.50;99.90
50969;DHT22;36982;51.474;7.228;2023-06-04T10:51:32;20.50;99.90
50969;DHT22;36982;51.474;7.228;2023-06-04T10:53:59;20.50;99.90
50969;DHT22;36982;51.474;7.228;2023-06-04T10:56:30;20.50;99.90
50969;DHT22;36982;51.474;7.228;2023-06-04T10:58:57;20.40;99.90
50969;DHT22;36982;51.474;7.228;2023-06-04T11:01:27;20.30;99.90
50969;DHT22;36982;51.474;7.228;2023-06-04T11:03:54;20.40;99.90
50969;DHT22;36982;51.474;7.228;2023-06-04T11:06:21;20.40;99.90
50969;DHT22;36982;51.474;7.228;2023-06-04T11:08:47;20.30;99.90
50969;DHT22;36982;51.474;7.228;2023-06-04T11:11:14;20.20;99.90
50969;DHT22;36982;51.474;7.228;2023-06-04T11:13:40;20.30;99.90
50969;DHT22;36982;51.474;7.228;2023-06-04T11:16:18;20.40;99.90
50969;DHT22;36982;51.474;7.228;2023-06-04T11:18:56;20.40;99.90
50969;DHT22;36982;51.474;7.228;2023-06-04T11:21:22;20.40;99.90
50969;DHT22;36982;51.474;7.228;2023-06-04T11:23:48;20.40;99.90
50969;DHT22;36982;51.474;7.228;2023-06-04T11:26:13;20.50;99.90
50969;DHT22;36982;51.474;7.228;2023-06-04T11:28:40;20.60;99.90
50969;DHT22;36982;51.474;7.228;2023-06-04T11:31:06;20.60;99.90
50969;DHT22;36982;51.474;7.228;2023-06-04T11:33:46;20.60;99.90
50969;DHT22;36982;51.474;7.228;2023-06-04T11:36:30;20.60;99.90
50969;DHT22;36982;51.474;7.228;2023-06-04T11:39:02;20.70;99.90
50969;DHT22;36982;51.474;7.228;2023-06-04T11:41:35;20.60;99.90
50969;DHT22;36982;51.474;7.228;2023-06-04T11:44:03;20.70;99.90
50969;DHT22;36982;51.474;7.228;2023-06-04T11:46:33;20.80;99.90
50969;DHT22;36982;51.474;7.228;2023-06-04T11:49:00;20.90;99.90
50969;DHT22;36982;51.474;7.228;2023-06-04T11:51:27;21.00;99.90
50969;DHT22;36982;51.474;7.228;2023-06-04T11:53:53;21.00;99.90
50969;DHT22;36982;51.474;7.228;2023-06-04T11:56:19;21.10;99.90
50969;DHT22;36982;51.474;7.228;2023-06-04T11:58:45;21.10;99.90
50969;DHT22;36982;51.474;7.228;2023-06-04T12:01:12;21.10;99.90
50969;DHT22;36982;51.474;7.228;2023-06-04T12:03:42;21.10;99.90
50969;DHT22;36982;51.474;7.228;2023-06-04T12:08:54;21.00;99.90
50969;DHT22;36982;51.474;7.228;2023-06-04T12:11:34;21.10;99.90
50969;DHT22;36982;51.474;7.228;2023-06-04T12:14:04;21.20;99.90
50969;DHT22;36982;51.474;7.228;2023-06-04T12:16:30;21.30;99.90
50969;DHT22;36982;51.474;7.228;2023-06-04T12:19:09;21.40;99.90
50969;DHT22;36982;51.474;7.228;2023-06-04T12:21:36;21.40;99.90
50969;DHT22;36982;51.474;7.228;2023-06-04T12:24:11;21.50;99.90
50969;DHT22;36982;51.474;7.228;2023-06-04T12:26:39;21.40;99.90
50969;DHT22;36982;51.474;7.228;2023-06-04T12:29:17;21.40;99.90
50969;DHT22;36982;51.474;7.228;2023-06-04T12:31:46;21.50;99.90
50969;DHT22;36982;51.474;7.228;2023-06-04T12:34:13;21.50;99.90
50969;DHT22;36982;51.474;7.228;2023-06-04T12:36:40;21.40;99.90
50969;DHT22;36982;51.474;7.228;2023-06-04T12:39:06;21.40;99.90
50969;DHT22;36982;51.474;7.228;2023-06-04T12:41:32;21.40;99.90
50969;DHT22;36982;51.474;7.228;2023-06-04T12:44:01;21.50;99.90
50969;DHT22;36982;51.474;7.228;2023-06-04T12:46:27;21.60;99.90
50969;DHT22;36982;51.474;7.228;2023-06-04T12:48:54;21.50;99.90
50969;DHT22;36982;51.474;7.228;2023-06-04T12:51:20;21.50;99.90
50969;DHT22;36982;51.474;7.228;2023-06-04T12:53:47;21.60;99.90
50969;DHT22;36982;51.474;7.228;2023-06-04T12:56:13;21.70;99.90
50969;DHT22;36982;51.474;7.228;2023-06-04T12:58:39;21.70;99.90
50969;DHT22;36982;51.474;7.228;2023-06-04T13:01:05;21.70;99.90
50969;DHT22;36982;51.474;7.228;2023-06-04T13:03:31;21.70;99.90
50969;DHT22;36982;51.474;7.228;2023-06-04T13:05:57;21.70;99.90
50969;DHT22;36982;51.474;7.228;2023-06-04T13:08:23;21.70;99.90
50969;DHT22;36982;51.474;7.228;2023-06-04T13:10:50;21.70;99.90
50969;DHT22;36982;51.474;7.228;2023-06-04T13:13:19;21.80;99.90
50969;DHT22;36982;51.474;7.228;2023-06-04T13:15:46;21.90;99.90
50969;DHT22;36982;51.474;7.228;2023-06-04T13:18:11;21.90;99.90
50969;DHT22;36982;51.474;7.228;2023-06-04T13:20:37;21.80;99.90
50969;DHT22;36982;51.474;7.228;2023-06-04T13:23:05;21.80;99.90
50969;DHT22;36982;51.474;7.228;2023-06-04T13:25:31;21.70;99.90
50969;DHT22;36982;51.474;7.228;2023-06-04T13:27:59;21.70;99.90
50969;DHT22;36982;51.474;7.228;2023-06-04T13:30:25;21.80;99.90
50969;DHT22;36982;51.474;7.228;2023-06-04T13:32:50;21.90;99.90
50969;DHT22;36982;51.474;7.228;2023-06-04T13:35:16;22.00;99.90
50969;DHT22;36982;51.474;7.228;2023-06-04T13:37:42;22.00;99.90
50969;DHT22;36982;51.474;7.228;2023-06-04T13:40:08;22.00;99.90
50969;DHT22;36982;51.474;7.228;2023-06-04T13:42:34;22.00;99.90
50969;DHT22;36982;51.474;7.228;2023-06-04T13:44:59;22.00;99.90
50969;DHT22;36982;51.474;7.228;2023-06-04T13:47:25;22.00;99.90
50969;DHT22;36982;51.474;7.228;2023-06-04T13:49:51;22.00;99.90
50969;DHT22;36982;51.474;7.228;2023-06-04T13:52:17;22.10;99.90
50969;DHT22;36982;51.474;7.228;2023-06-04T13:54:43;22.10;99.90
50969;DHT22;36982;51.474;7.228;2023-06-04T13:57:09;22.20;99.90
50969;DHT22;36982;51.474;7.228;2023-06-04T13:59:38;22.20;99.90
50969;DHT22;36982;51.474;7.228;2023-06-04T14:02:04;22.40;99.90
50969;DHT22;36982;51.474;7.228;2023-06-04T14:04:30;22.40;99.90
50969;DHT22;36982;51.474;7.228;2023-06-04T14:06:55;22.40;99.90
50969;DHT22;36982;51.474;7.228;2023-06-04T14:09:21;22.30;99.90
50969;DHT22;36982;51.474;7.228;2023-06-04T14:11:47;22.30;99.90
50969;DHT22;36982;51.474;7.228;2023-06-04T14:14:19;22.30;99.90
50969;DHT22;36982;51.474;7.228;2023-06-04T14:16:45;22.30;99.90
50969;DHT22;36982;51.474;7.228;2023-06-04T14:19:11;22.40;99.90
50969;DHT22;36982;51.474;7.228;2023-06-04T14:21:37;22.30;99.90
50969;DHT22;36982;51.474;7.228;2023-06-04T14:24:03;22.30;99.90
50969;DHT22;36982;51.474;7.228;2023-06-04T14:26:29;22.20;99.90
50969;DHT22;36982;51.474;7.228;2023-06-04T14:28:55;22.20;99.90
50969;DHT22;36982;51.474;7.228;2023-06-04T14:31:20;22.30;99.90
50969;DHT22;36982;51.474;7.228;2023-06-04T14:33:46;22.20;99.90
50969;DHT22;36982;51.474;7.228;2023-06-04T14:36:12;22.30;99.90
50969;DHT22;36982;51.474;7.228;2023-06-04T14:38:37;22.40;99.90
50969;DHT22;36982;51.474;7.228;2023-06-04T14:41:03;22.40;99.90
50969;DHT22;36982;51.474;7.228;2023-06-04T14:43:29;22.50;99.90
50969;DHT22;36982;51.474;7.228;2023-06-04T14:45:55;22.40;99.90
50969;DHT22;36982;51.474;7.228;2023-06-04T14:48:20;22.60;99.90
50969;DHT22;36982;51.474;7.228;2023-06-04T14:50:46;22.50;99.90
50969;DHT22;36982;51.474;7.228;2023-06-04T14:53:15;22.60;99.90
50969;DHT22;36982;51.474;7.228;2023-06-04T14:55:41;22.50;99.90
50969;DHT22;36982;51.474;7.228;2023-06-04T14:58:06;22.60;99.90
50969;DHT22;36982;51.474;7.228;2023-06-04T15:00:32;22.50;99.90
50969;DHT22;36982;51.474;7.228;2023-06-04T15:02:58;22.40;99.90
50969;DHT22;36982;51.474;7.228;2023-06-04T15:05:25;22.50;99.90
50969;DHT22;36982;51.474;7.228;2023-06-04T15:07:50;22.40;99.90
50969;DHT22;36982;51.474;7.228;2023-06-04T15:10:16;22.40;99.90
50969;DHT22;36982;51.474;7.228;2023-06-04T15:12:42;22.50;99.90
50969;DHT22;36982;51.474;7.228;2023-06-04T15:15:09;22.50;99.90
50969;DHT22;36982;51.474;7.228;2023-06-04T15:17:35;22.50;99.90
50969;DHT22;36982;51.474;7.228;2023-06-04T15:20:02;22.40;99.90
50969;DHT22;36982;51.474;7.228;2023-06-04T15:22:28;22.50;99.90
50969;DHT22;36982;51.474;7.228;2023-06-04T15:24:53;22.50;99.90
50969;DHT22;36982;51.474;7.228;2023-06-04T15:27:19;22.60;99.90
50969;DHT22;36982;51.474;7.228;2023-06-04T15:29:45;22.50;99.90
50969;DHT22;36982;51.474;7.228;2023-06-04T15:32:11;22.60;99.90
50969;DHT22;36982;51.474;7.228;2023-06-04T15:34:36;22.50;99.90
50969;DHT22;36982;51.474;7.228;2023-06-04T15:37:02;22.50;99.90
50969;DHT22;36982;51.474;7.228;2023-06-04T15:39:28;22.50;99.90
50969;DHT22;36982;51.474;7.228;2023-06-04T15:41:53;22.60;99.90
50969;DHT22;36982;51.474;7.228;2023-06-04T15:44:19;22.60;99.90
50969;DHT22;36982;51.474;7.228;2023-06-04T15:46:45;22.50;99.90
50969;DHT22;36982;51.474;7.228;2023-06-04T15:49:10;22.50;99.90
50969;DHT22;36982;51.474;7.228;2023-06-04T15:51:36;22.60;99.90